createdAt,value
2018-10-09T00:00:00.347Z,60.70
2018-10-09T00:02:28.491Z,60.50
2018-10-09T00:04:56.722Z,60.60
2018-10-09T00:07:26.023Z,60.50
2018-10-09T00:09:54.338Z,59.80
2018-10-09T00:12:22.486Z,60.20
2018-10-09T00:14:50.648Z,60.20
2018-10-09T00:17:18.799Z,60.20
2018-10-09T00:19:47.142Z,60.30
2018-10-09T00:22:15.411Z,60.40
2018-10-09T00:24:43.583Z,60.60
2018-10-09T00:27:11.810Z,60.70
2018-10-09T00:29:40.219Z,60.80
2018-10-09T00:32:08.487Z,60.70
2018-10-09T00:34:36.662Z,60.50
2018-10-09T00:37:04.850Z,60.70
2018-10-09T00:39:33.175Z,60.70
2018-10-09T00:42:01.506Z,60.70
2018-10-09T00:44:29.913Z,60.40
2018-10-09T00:46:58.138Z,60.20
2018-10-09T00:49:26.286Z,60.30
2018-10-09T00:51:54.791Z,60.30
2018-10-09T00:54:23.067Z,60.20
2018-10-09T00:56:51.208Z,60.20
2018-10-09T00:59:19.419Z,60.20
2018-10-09T01:01:47.593Z,61.20
2018-10-09T01:04:15.889Z,60.40
2018-10-09T01:06:44.140Z,60.50
2018-10-09T01:09:12.565Z,60.50
2018-10-09T01:11:40.715Z,60.50
2018-10-09T01:14:08.902Z,60.50
2018-10-09T01:16:37.180Z,60.60
2018-10-09T01:19:05.641Z,60.80
2018-10-09T01:21:34.019Z,60.90
2018-10-09T01:24:02.214Z,61.10
2018-10-09T01:26:30.387Z,61.00
2018-10-09T01:28:58.738Z,61.10
2018-10-09T01:31:27.113Z,61.10
2018-10-09T01:33:55.280Z,61.20
2018-10-09T01:36:23.464Z,61.10
2018-10-09T01:38:51.831Z,61.20
2018-10-09T01:41:20.216Z,61.20
2018-10-09T01:43:48.410Z,61.30
2018-10-09T01:46:16.595Z,61.40
2018-10-09T01:48:44.814Z,61.50
2018-10-09T01:51:13.322Z,61.50
2018-10-09T01:53:41.720Z,61.60
2018-10-09T01:56:10.007Z,61.70
2018-10-09T01:58:38.287Z,61.80
2018-10-09T02:01:06.487Z,61.80
2018-10-09T02:03:34.847Z,62.00
2018-10-09T02:06:03.126Z,62.20
2018-10-09T02:08:31.299Z,62.30
2018-10-09T02:10:59.474Z,62.40
2018-10-09T02:13:27.629Z,62.50
2018-10-09T02:15:56.015Z,62.50
2018-10-09T02:18:24.197Z,62.70
2018-10-09T02:20:52.371Z,62.80
2018-10-09T02:23:20.546Z,62.90
2018-10-09T02:25:48.726Z,62.90
2018-10-09T02:28:17.047Z,63.00
2018-10-09T02:30:45.295Z,63.00
2018-10-09T02:33:13.447Z,63.10
2018-10-09T02:35:41.631Z,63.20
2018-10-09T02:38:10.087Z,63.40
2018-10-09T02:40:38.299Z,63.40
2018-10-09T02:43:06.478Z,63.50
2018-10-09T02:45:34.691Z,63.60
2018-10-09T02:48:02.846Z,63.60
2018-10-09T02:50:31.254Z,63.70
2018-10-09T02:52:59.475Z,63.80
2018-10-09T02:55:27.656Z,63.70
2018-10-09T02:57:55.815Z,63.80
2018-10-09T03:00:23.959Z,63.90
2018-10-09T03:02:52.362Z,63.70
2018-10-09T03:05:20.725Z,63.60
2018-10-09T03:07:48.879Z,63.60
2018-10-09T03:10:17.077Z,63.70
2018-10-09T03:12:45.414Z,63.60
2018-10-09T03:15:13.615Z,63.70
2018-10-09T03:17:41.857Z,63.70
2018-10-09T03:20:10.050Z,63.80
2018-10-09T03:22:38.239Z,63.70
2018-10-09T03:25:06.511Z,63.70
2018-10-09T03:27:34.751Z,63.60
2018-10-09T03:30:02.940Z,64.60
2018-10-09T03:32:31.148Z,63.50
2018-10-09T03:34:59.311Z,63.50
2018-10-09T03:37:27.656Z,63.60
2018-10-09T03:39:55.952Z,63.60
2018-10-09T03:42:24.174Z,63.70
2018-10-09T03:44:52.398Z,63.70
2018-10-09T03:47:20.731Z,63.80
2018-10-09T03:49:48.967Z,63.80
2018-10-09T03:52:17.148Z,63.80
2018-10-09T03:54:45.485Z,63.90
2018-10-09T03:57:13.938Z,63.80
2018-10-09T03:59:42.136Z,63.70
2018-10-09T04:02:10.759Z,63.80
2018-10-09T04:04:39.138Z,63.80
2018-10-09T04:07:07.580Z,63.70
2018-10-09T04:09:35.843Z,63.80
2018-10-09T04:12:04.207Z,63.80
2018-10-09T04:14:32.525Z,63.90
2018-10-09T04:17:00.744Z,64.00
2018-10-09T04:19:29.042Z,64.00
2018-10-09T04:21:57.182Z,64.00
2018-10-09T04:24:25.460Z,64.10
2018-10-09T04:26:53.658Z,64.10
2018-10-09T04:29:21.954Z,64.20
2018-10-09T04:31:50.063Z,64.40
2018-10-09T04:34:18.226Z,64.50
2018-10-09T04:36:46.493Z,64.40
2018-10-09T04:39:14.702Z,64.30
2018-10-09T04:41:42.936Z,64.20
2018-10-09T04:44:11.116Z,64.30
2018-10-09T04:46:39.334Z,65.20
2018-10-09T04:49:07.679Z,64.40
2018-10-09T04:51:36.014Z,64.40
2018-10-09T04:54:04.230Z,64.60
2018-10-09T04:56:32.422Z,64.60
2018-10-09T04:59:00.815Z,64.50
2018-10-09T05:01:29.391Z,64.50
2018-10-09T05:03:57.762Z,64.60
2018-10-09T05:06:26.000Z,64.60
2018-10-09T05:08:54.179Z,64.60
2018-10-09T05:11:22.556Z,64.50
2018-10-09T05:13:50.814Z,65.40
2018-10-09T05:16:19.048Z,64.70
2018-10-09T05:18:47.284Z,64.80
2018-10-09T05:21:15.440Z,64.90
2018-10-09T05:23:43.867Z,65.10
2018-10-09T05:26:12.066Z,65.10
2018-10-09T05:28:40.255Z,65.20
2018-10-09T05:31:08.535Z,65.30
2018-10-09T05:33:36.603Z,65.50
2018-10-09T05:36:04.807Z,65.40
2018-10-09T05:38:33.000Z,65.50
2018-10-09T05:41:01.291Z,65.60
2018-10-09T05:43:29.506Z,65.70
2018-10-09T05:45:57.679Z,65.80
2018-10-09T05:48:26.051Z,65.80
2018-10-09T05:50:54.293Z,65.80
2018-10-09T05:53:22.670Z,66.00
2018-10-09T05:55:50.846Z,66.00
2018-10-09T05:58:19.018Z,66.30
2018-10-09T06:00:47.182Z,66.40
2018-10-09T06:03:15.363Z,66.50
2018-10-09T06:05:43.598Z,66.50
2018-10-09T06:08:11.730Z,66.60
2018-10-09T06:10:39.911Z,66.70
2018-10-09T06:13:08.048Z,66.80
2018-10-09T06:15:36.296Z,67.70
2018-10-09T06:18:04.377Z,67.00
2018-10-09T06:20:32.554Z,67.00
2018-10-09T06:23:00.854Z,66.90
2018-10-09T06:25:29.362Z,66.90
2018-10-09T06:27:57.697Z,66.80
2018-10-09T06:30:25.848Z,66.70
2018-10-09T06:32:54.034Z,66.80
2018-10-09T06:35:22.212Z,66.60
2018-10-09T06:37:50.454Z,66.50
2018-10-09T06:40:18.653Z,66.70
2018-10-09T06:42:46.825Z,66.60
2018-10-09T06:45:15.022Z,66.50
2018-10-09T06:47:43.286Z,66.50
2018-10-09T06:50:11.363Z,66.70
2018-10-09T06:52:39.532Z,66.70
2018-10-09T06:55:07.703Z,66.80
2018-10-09T06:57:35.837Z,66.70
2018-10-09T07:00:04.044Z,66.70
2018-10-09T07:02:32.162Z,66.70
2018-10-09T07:05:00.310Z,66.70
2018-10-09T07:07:28.555Z,66.70
2018-10-09T07:09:56.726Z,66.80
2018-10-09T07:12:24.894Z,66.90
2018-10-09T07:14:53.139Z,66.90
2018-10-09T07:17:21.315Z,66.90
2018-10-09T07:19:49.481Z,67.00
2018-10-09T07:22:17.626Z,66.90
2018-10-09T07:24:45.779Z,66.90
2018-10-09T07:27:13.934Z,67.60
2018-10-09T07:29:42.082Z,66.80
2018-10-09T07:32:10.248Z,66.70
2018-10-09T07:34:38.421Z,66.80
2018-10-09T07:37:06.591Z,66.80
2018-10-09T07:39:34.826Z,66.80
2018-10-09T07:42:02.979Z,66.70
2018-10-09T07:44:31.144Z,66.70
2018-10-09T07:46:59.326Z,66.50
2018-10-09T07:49:27.482Z,66.40
2018-10-09T07:51:55.698Z,66.20
2018-10-09T07:54:23.860Z,66.10
2018-10-09T07:56:52.031Z,65.80
2018-10-09T07:59:20.202Z,65.70
2018-10-09T08:01:48.380Z,65.60
2018-10-09T08:04:16.534Z,65.30
2018-10-09T08:06:44.690Z,65.10
2018-10-09T08:09:12.843Z,65.00
2018-10-09T08:11:41.050Z,65.60
2018-10-09T08:14:09.519Z,64.60
2018-10-09T08:16:37.723Z,64.60
2018-10-09T08:19:06.159Z,64.50
2018-10-09T08:21:34.358Z,64.40
2018-10-09T08:24:02.560Z,64.30
2018-10-09T08:26:30.786Z,64.20
2018-10-09T08:28:58.959Z,64.20
2018-10-09T08:31:27.138Z,64.00
2018-10-09T08:33:55.323Z,63.70
2018-10-09T08:36:24.001Z,63.50
2018-10-09T08:38:52.266Z,63.50
2018-10-09T08:41:20.554Z,63.60
2018-10-09T08:43:48.694Z,63.10
2018-10-09T08:46:16.934Z,62.70
2018-10-09T08:48:45.064Z,62.50
2018-10-09T08:51:13.234Z,62.50
2018-10-09T08:53:41.514Z,62.50
2018-10-09T08:56:09.703Z,62.20
2018-10-09T08:58:38.095Z,62.10
2018-10-09T09:01:06.317Z,62.40
2018-10-09T09:03:34.533Z,62.10
2018-10-09T09:06:02.715Z,62.10
2018-10-09T09:08:30.913Z,61.90
2018-10-09T09:10:59.059Z,62.00
2018-10-09T09:13:27.226Z,62.40
2018-10-09T09:15:55.411Z,63.00
2018-10-09T09:18:23.591Z,61.50
2018-10-09T09:20:51.806Z,61.70
2018-10-09T09:23:19.946Z,61.10
2018-10-09T09:25:48.104Z,60.70
2018-10-09T09:28:16.275Z,60.30
2018-10-09T09:30:44.427Z,60.10
2018-10-09T09:33:12.662Z,60.00
2018-10-09T09:35:40.799Z,59.70
2018-10-09T09:38:09.008Z,59.50
2018-10-09T09:40:37.142Z,59.30
2018-10-09T09:43:05.357Z,59.30
2018-10-09T09:45:33.534Z,59.10
2018-10-09T09:48:01.739Z,59.00
2018-10-09T09:50:29.894Z,58.20
2018-10-09T09:52:58.050Z,57.90
2018-10-09T09:55:26.259Z,57.80
2018-10-09T09:57:54.471Z,58.70
2018-10-09T10:00:27.995Z,57.80
2018-10-09T10:02:56.166Z,57.70
2018-10-09T10:05:24.331Z,57.60
2018-10-09T10:07:52.478Z,57.50
2018-10-09T10:10:20.643Z,57.60
2018-10-09T10:12:48.870Z,57.60
2018-10-09T10:15:17.036Z,57.80
2018-10-09T10:17:45.258Z,57.90
2018-10-09T10:20:13.775Z,57.50
2018-10-09T10:22:41.973Z,57.20
2018-10-09T10:25:10.135Z,56.80
2018-10-09T10:27:38.372Z,56.40
2018-10-09T10:30:06.639Z,56.50
2018-10-09T10:32:34.803Z,56.40
2018-10-09T10:35:02.959Z,56.10
2018-10-09T10:37:31.143Z,55.90
2018-10-09T10:39:59.319Z,55.60
2018-10-09T10:42:27.487Z,54.90
2018-10-09T10:44:55.655Z,54.70
2018-10-09T10:47:23.807Z,54.00
2018-10-09T10:49:51.979Z,53.90
2018-10-09T10:52:20.144Z,54.10
2018-10-09T10:54:48.412Z,53.70
2018-10-09T10:57:16.492Z,53.30
2018-10-09T10:59:44.683Z,53.00
2018-10-09T11:02:12.896Z,52.70
2018-10-09T11:04:41.070Z,52.30
2018-10-09T11:07:09.231Z,52.10
2018-10-09T11:09:37.392Z,52.00
2018-10-09T11:12:05.714Z,52.00
2018-10-09T11:14:33.946Z,51.60
2018-10-09T11:17:02.070Z,51.60
2018-10-09T11:19:30.299Z,51.90
2018-10-09T11:21:59.631Z,52.20
2018-10-09T11:24:27.942Z,52.20
2018-10-09T11:26:56.151Z,52.30
2018-10-09T11:29:24.351Z,52.20
2018-10-09T11:31:52.554Z,52.30
2018-10-09T11:34:20.726Z,52.50
2018-10-09T11:36:48.883Z,52.70
2018-10-09T11:39:17.062Z,52.80
2018-10-09T11:41:45.256Z,53.00
2018-10-09T11:44:13.469Z,53.00
2018-10-09T11:46:41.672Z,53.10
2018-10-09T11:49:09.866Z,53.20
2018-10-09T11:51:38.151Z,52.90
2018-10-09T11:54:06.603Z,53.40
2018-10-09T11:56:34.766Z,53.50
2018-10-09T11:59:02.991Z,53.80
2018-10-09T12:01:31.194Z,53.60
2018-10-09T12:03:59.366Z,53.50
2018-10-09T12:06:27.560Z,53.70
2018-10-09T12:08:55.766Z,54.00
2018-10-09T12:11:23.935Z,54.20
2018-10-09T12:13:52.109Z,54.30
2018-10-09T12:16:21.252Z,54.50
2018-10-09T12:18:49.438Z,54.60
2018-10-09T12:21:17.713Z,54.70
2018-10-09T12:23:45.845Z,54.70
2018-10-09T12:26:14.029Z,54.60
2018-10-09T12:28:42.243Z,54.60
2018-10-09T12:31:10.764Z,54.70
2018-10-09T12:33:38.906Z,54.90
2018-10-09T12:36:07.116Z,55.30
2018-10-09T12:38:35.212Z,55.50
2018-10-09T12:41:03.358Z,55.50
2018-10-09T12:43:31.463Z,55.70
2018-10-09T12:45:59.581Z,55.80
2018-10-09T12:48:27.719Z,55.60
2018-10-09T12:50:55.843Z,55.50
2018-10-09T12:53:24.338Z,55.50
2018-10-09T12:55:52.491Z,55.20
2018-10-09T12:58:20.619Z,55.00
2018-10-09T13:00:48.861Z,55.00
2018-10-09T13:03:16.991Z,55.00
2018-10-09T13:05:45.103Z,54.90
2018-10-09T13:08:13.346Z,54.90
2018-10-09T13:10:41.479Z,54.80
2018-10-09T13:13:09.580Z,54.50
2018-10-09T13:15:37.684Z,54.50
2018-10-09T13:18:05.851Z,54.40
2018-10-09T13:20:34.002Z,54.50
2018-10-09T13:23:02.111Z,54.40
2018-10-09T13:25:30.235Z,54.10
2018-10-09T13:27:58.327Z,54.10
2018-10-09T13:30:26.471Z,54.10
2018-10-09T13:32:54.580Z,54.70
2018-10-09T13:35:22.711Z,54.10
2018-10-09T13:37:51.012Z,54.80
2018-10-09T13:40:19.123Z,54.10
2018-10-09T13:42:47.231Z,54.00
2018-10-09T13:45:15.341Z,54.00
2018-10-09T13:47:43.514Z,53.90
2018-10-09T13:50:11.582Z,53.90
2018-10-09T13:52:39.776Z,54.00
2018-10-09T13:55:07.891Z,53.60
2018-10-09T13:57:36.535Z,54.20
2018-10-09T14:00:04.703Z,54.20
2018-10-09T14:02:32.842Z,54.00
2018-10-09T14:05:00.957Z,53.90
2018-10-09T14:07:29.087Z,54.00
2018-10-09T14:09:57.565Z,54.10
2018-10-09T14:12:25.703Z,54.00
2018-10-09T14:14:53.899Z,54.10
2018-10-09T14:17:22.039Z,54.00
2018-10-09T14:19:50.286Z,54.00
2018-10-09T14:22:18.468Z,54.10
2018-10-09T14:24:46.619Z,54.10
2018-10-09T14:27:14.791Z,54.10
2018-10-09T14:29:42.961Z,54.30
2018-10-09T14:32:11.140Z,54.40
2018-10-09T14:34:39.329Z,54.50
2018-10-09T14:37:07.658Z,54.70
2018-10-09T14:39:35.827Z,55.50
2018-10-09T14:42:03.978Z,54.90
2018-10-09T14:44:32.169Z,55.10
2018-10-09T14:47:00.403Z,55.20
2018-10-09T14:49:28.555Z,55.30
2018-10-09T14:51:56.766Z,55.40
2018-10-09T14:54:24.917Z,55.40
2018-10-09T14:56:53.123Z,55.70
2018-10-09T14:59:22.100Z,55.70
2018-10-09T15:01:50.382Z,56.10
2018-10-09T15:04:18.450Z,56.30
2018-10-09T15:06:46.658Z,56.40
2018-10-09T15:09:14.858Z,56.60
2018-10-09T15:11:43.531Z,56.80
2018-10-09T15:14:11.842Z,57.10
2018-10-09T15:16:40.304Z,57.50
2018-10-09T15:19:08.758Z,57.60
2018-10-09T15:21:37.116Z,57.70
2018-10-09T15:24:05.232Z,57.80
2018-10-09T15:26:34.588Z,58.10
2018-10-09T15:29:02.697Z,58.50
2018-10-09T15:31:30.783Z,58.80
2018-10-09T15:33:58.951Z,59.10
2018-10-09T15:36:27.038Z,59.40
2018-10-09T15:38:55.175Z,59.50
2018-10-09T15:41:23.417Z,59.80
2018-10-09T15:43:51.514Z,60.00
2018-10-09T15:46:19.658Z,60.30
2018-10-09T15:48:47.759Z,60.50
2018-10-09T15:51:15.843Z,60.70
2018-10-09T15:53:43.951Z,60.70
2018-10-09T15:56:12.083Z,60.80
2018-10-09T15:58:40.201Z,60.90
2018-10-09T16:01:08.295Z,61.10
2018-10-09T16:03:36.410Z,61.10
2018-10-09T16:06:04.522Z,61.10
2018-10-09T16:08:32.678Z,61.20
2018-10-09T16:11:00.879Z,61.40
2018-10-09T16:13:29.043Z,61.40
2018-10-09T16:15:57.284Z,61.70
2018-10-09T16:18:25.447Z,62.10
2018-10-09T16:20:53.667Z,62.20
2018-10-09T16:23:21.758Z,62.40
2018-10-09T16:25:49.959Z,63.40
2018-10-09T16:28:18.178Z,62.70
2018-10-09T16:30:46.330Z,63.00
2018-10-09T16:33:14.595Z,63.10
2018-10-09T16:35:42.742Z,63.30
2018-10-09T16:38:10.903Z,63.40
2018-10-09T16:40:39.169Z,63.60
2018-10-09T16:43:07.321Z,63.80
2018-10-09T16:45:35.499Z,63.80
2018-10-09T16:48:03.658Z,64.00
2018-10-09T16:50:31.851Z,64.10
2018-10-09T16:53:00.021Z,64.20
2018-10-09T16:55:28.180Z,64.30
2018-10-09T16:57:56.360Z,64.40
2018-10-09T17:00:24.511Z,64.40
2018-10-09T17:02:52.672Z,64.50
2018-10-09T17:05:20.841Z,64.60
2018-10-09T17:07:49.004Z,64.70
2018-10-09T17:10:17.156Z,64.80
2018-10-09T17:12:45.411Z,64.90
2018-10-09T17:15:13.567Z,65.10
2018-10-09T17:17:41.723Z,65.00
2018-10-09T17:20:09.883Z,65.10
2018-10-09T17:22:38.023Z,65.80
2018-10-09T17:25:06.243Z,65.30
2018-10-09T17:27:34.382Z,65.40
2018-10-09T17:30:02.535Z,65.40
2018-10-09T17:32:30.690Z,65.50
2018-10-09T17:34:58.875Z,65.70
2018-10-09T17:37:27.948Z,65.70
2018-10-09T17:39:56.095Z,65.80
2018-10-09T17:42:24.251Z,66.00
2018-10-09T17:44:52.410Z,66.10
2018-10-09T17:47:20.671Z,66.20
2018-10-09T17:49:48.906Z,66.30
2018-10-09T17:52:17.075Z,66.50
2018-10-09T17:54:45.261Z,66.50
2018-10-09T17:57:13.442Z,66.80
2018-10-09T17:59:41.629Z,66.80
2018-10-09T18:02:09.783Z,66.90
2018-10-09T18:04:37.955Z,67.00
2018-10-09T18:07:06.141Z,67.00
2018-10-09T18:09:34.351Z,67.10
2018-10-09T18:12:02.522Z,67.20
2018-10-09T18:14:30.636Z,67.40
2018-10-09T18:16:58.803Z,67.40
2018-10-09T18:19:26.891Z,67.60
2018-10-09T18:21:55.014Z,67.80
2018-10-09T18:24:23.144Z,68.50
2018-10-09T18:26:51.311Z,67.90
2018-10-09T18:29:19.419Z,67.90
2018-10-09T18:31:47.561Z,67.90
2018-10-09T18:34:15.691Z,68.00
2018-10-09T18:36:43.838Z,68.00
2018-10-09T18:39:13.958Z,68.10
2018-10-09T18:41:42.404Z,68.90
2018-10-09T18:44:10.457Z,68.10
2018-10-09T18:46:38.580Z,68.20
2018-10-09T18:49:06.715Z,68.30
2018-10-09T18:51:35.191Z,68.30
2018-10-09T18:54:04.156Z,68.20
2018-10-09T18:56:32.271Z,68.30
2018-10-09T18:59:00.370Z,68.40
2018-10-09T19:01:28.491Z,68.40
2018-10-09T19:03:56.591Z,68.40
2018-10-09T19:06:24.753Z,68.50
2018-10-09T19:08:52.839Z,68.50
2018-10-09T19:11:24.687Z,68.60
2018-10-09T19:13:53.102Z,68.70
2018-10-09T19:16:21.254Z,68.60
2018-10-09T19:18:49.431Z,68.70
2018-10-09T19:21:17.643Z,68.70
2018-10-09T19:23:45.890Z,68.80
2018-10-09T19:26:14.171Z,68.80
2018-10-09T19:28:42.406Z,68.80
2018-10-09T19:31:10.587Z,68.90
2018-10-09T19:33:38.754Z,68.90
2018-10-09T19:36:06.918Z,69.00
2018-10-09T19:38:35.122Z,69.10
2018-10-09T19:41:03.358Z,69.10
2018-10-09T19:43:31.542Z,69.20
2018-10-09T19:46:00.963Z,69.30
2018-10-09T19:48:29.158Z,69.30
2018-10-09T19:50:57.471Z,69.20
2018-10-09T19:53:25.563Z,69.30
2018-10-09T19:55:53.771Z,69.30
2018-10-09T19:58:21.935Z,69.20
2018-10-09T20:00:50.205Z,69.30
2018-10-09T20:03:18.415Z,69.40
2018-10-09T20:05:46.613Z,69.40
2018-10-09T20:08:14.868Z,69.40
2018-10-09T20:10:43.029Z,69.40
2018-10-09T20:13:11.164Z,69.40
2018-10-09T20:15:39.330Z,69.40
2018-10-09T20:18:07.412Z,69.50
2018-10-09T20:20:35.531Z,69.50
2018-10-09T20:23:03.743Z,69.60
2018-10-09T20:25:31.858Z,69.60
2018-10-09T20:28:00.002Z,69.50
2018-10-09T20:30:28.078Z,69.50
2018-10-09T20:32:56.182Z,69.50
2018-10-09T20:35:24.270Z,69.50
2018-10-09T20:37:52.396Z,69.50
2018-10-09T20:40:20.554Z,69.50
2018-10-09T20:42:48.675Z,69.50
2018-10-09T20:45:17.379Z,69.50
2018-10-09T20:47:46.267Z,69.50
2018-10-09T20:50:14.970Z,69.60
2018-10-09T20:52:43.140Z,70.40
2018-10-09T20:55:11.202Z,69.60
2018-10-09T20:57:39.303Z,69.60
2018-10-09T21:00:07.443Z,69.70
2018-10-09T21:02:35.563Z,69.80
2018-10-09T21:05:03.672Z,69.80
2018-10-09T21:07:31.815Z,69.70
2018-10-09T21:10:00.143Z,69.70
2018-10-09T21:12:28.273Z,69.80
2018-10-09T21:14:56.388Z,69.80
2018-10-09T21:17:24.579Z,69.70
2018-10-09T21:19:52.655Z,69.70
2018-10-09T21:22:20.853Z,69.70
2018-10-09T21:24:48.969Z,69.70
2018-10-09T21:27:17.079Z,69.70
2018-10-09T21:29:45.195Z,70.40
2018-10-09T21:32:13.292Z,69.80
2018-10-09T21:34:41.391Z,69.80
2018-10-09T21:37:09.594Z,69.90
2018-10-09T21:39:37.675Z,69.80
2018-10-09T21:42:05.778Z,69.90
2018-10-09T21:44:33.880Z,69.90
2018-10-09T21:47:02.012Z,70.10
2018-10-09T21:49:30.125Z,70.00
2018-10-09T21:51:58.243Z,70.00
2018-10-09T21:54:26.351Z,69.80
2018-10-09T21:56:54.446Z,69.80
2018-10-09T21:59:22.548Z,69.90
2018-10-09T22:01:50.687Z,70.00
2018-10-09T22:04:18.819Z,69.80
2018-10-09T22:06:46.922Z,69.90
2018-10-09T22:09:15.026Z,70.00
2018-10-09T22:11:43.199Z,70.00
2018-10-09T22:14:11.383Z,70.00
2018-10-09T22:16:39.551Z,70.00
2018-10-09T22:19:07.719Z,70.00
2018-10-09T22:21:35.871Z,70.10
2018-10-09T22:24:04.024Z,69.90
2018-10-09T22:26:32.179Z,70.00
2018-10-09T22:29:00.331Z,69.90
2018-10-09T22:31:28.523Z,70.00
2018-10-09T22:33:57.509Z,70.00
2018-10-09T22:36:25.668Z,69.40
2018-10-09T22:38:53.832Z,70.80
2018-10-09T22:41:21.977Z,69.90
2018-10-09T22:43:50.277Z,69.90
2018-10-09T22:46:18.370Z,69.90
2018-10-09T22:48:46.590Z,70.50
2018-10-09T22:51:14.735Z,69.90
2018-10-09T22:53:42.891Z,69.90
2018-10-09T22:56:11.060Z,70.00
2018-10-09T22:58:39.242Z,70.00
2018-10-09T23:01:07.422Z,70.10
2018-10-09T23:03:35.651Z,70.20
2018-10-09T23:06:03.994Z,70.10
2018-10-09T23:08:32.155Z,70.10
2018-10-09T23:11:00.269Z,70.20
2018-10-09T23:13:28.379Z,70.20
2018-10-09T23:15:56.483Z,70.20
2018-10-09T23:18:24.582Z,70.10
2018-10-09T23:20:52.682Z,70.10
2018-10-09T23:23:20.773Z,70.10
2018-10-09T23:25:48.908Z,70.10
2018-10-09T23:28:17.004Z,70.10
2018-10-09T23:30:45.215Z,70.10
2018-10-09T23:33:13.331Z,70.10
2018-10-09T23:35:41.419Z,70.20
2018-10-09T23:38:09.520Z,70.10
2018-10-09T23:40:37.711Z,70.10
2018-10-09T23:43:05.871Z,70.50
2018-10-09T23:45:34.149Z,70.20
2018-10-09T23:48:02.251Z,70.30
2018-10-09T23:50:30.391Z,70.40
2018-10-09T23:52:58.487Z,70.40
2018-10-09T23:55:26.591Z,71.20
2018-10-09T23:57:54.695Z,70.30
